sensor_id;sensor_type;location;lat;lon;timestamp;P1;durP1;ratioP1;P2;durP2;ratioP2
75050;SDS011;63628;47.656;11.310;2023-09-08T00:01:15;7.10;;;4.10;;
75050;SDS011;63628;47.656;11.310;2023-09-08T00:03:43;3.80;;;3.40;;
75050;SDS011;63628;47.656;11.310;2023-09-08T00:06:10;3.92;;;3.63;;
75050;SDS011;63628;47.656;11.310;2023-09-08T00:08:37;4.40;;;4.00;;
75050;SDS011;63628;47.656;11.310;2023-09-08T00:11:03;4.03;;;3.63;;
75050;SDS011;63628;47.656;11.310;2023-09-08T00:13:31;4.05;;;3.65;;
75050;SDS011;63628;47.656;11.310;2023-09-08T00:15:58;5.28;;;4.03;;
75050;SDS011;63628;47.656;11.310;2023-09-08T00:18:25;7.68;;;4.53;;
75050;SDS011;63628;47.656;11.310;2023-09-08T00:20:53;4.45;;;4.05;;
75050;SDS011;63628;47.656;11.310;2023-09-08T00:23:19;4.80;;;3.80;;
75050;SDS011;63628;47.656;11.310;2023-09-08T00:25:46;3.92;;;3.63;;
75050;SDS011;63628;47.656;11.310;2023-09-08T00:28:15;4.32;;;3.92;;
75050;SDS011;63628;47.656;11.310;2023-09-08T00:30:41;4.30;;;3.50;;
75050;SDS011;63628;47.656;11.310;2023-09-08T00:33:08;3.90;;;3.58;;
75050;SDS011;63628;47.656;11.310;2023-09-08T00:35:35;3.92;;;3.53;;
75050;SDS011;63628;47.656;11.310;2023-09-08T00:38:04;4.35;;;3.95;;
75050;SDS011;63628;47.656;11.310;2023-09-08T00:40:31;4.10;;;3.70;;
75050;SDS011;63628;47.656;11.310;2023-09-08T00:42:58;4.13;;;3.20;;
75050;SDS011;63628;47.656;11.310;2023-09-08T00:45:26;3.72;;;3.42;;
75050;SDS011;63628;47.656;11.310;2023-09-08T00:47:56;3.80;;;3.50;;
75050;SDS011;63628;47.656;11.310;2023-09-08T00:50:23;3.85;;;3.50;;
75050;SDS011;63628;47.656;11.310;2023-09-08T00:52:50;3.55;;;3.25;;
75050;SDS011;63628;47.656;11.310;2023-09-08T00:55:18;4.35;;;3.95;;
75050;SDS011;63628;47.656;11.310;2023-09-08T00:57:45;4.45;;;4.05;;
75050;SDS011;63628;47.656;11.310;2023-09-08T01:00:12;3.80;;;3.50;;
75050;SDS011;63628;47.656;11.310;2023-09-08T01:02:40;3.83;;;3.50;;
75050;SDS011;63628;47.656;11.310;2023-09-08T01:05:07;4.88;;;3.92;;
75050;SDS011;63628;47.656;11.310;2023-09-08T01:07:34;4.38;;;3.97;;
75050;SDS011;63628;47.656;11.310;2023-09-08T01:10:01;4.05;;;3.60;;
75050;SDS011;63628;47.656;11.310;2023-09-08T01:12:34;3.75;;;3.45;;
75050;SDS011;63628;47.656;11.310;2023-09-08T01:15:01;3.78;;;3.47;;
75050;SDS011;63628;47.656;11.310;2023-09-08T01:17:28;4.43;;;4.03;;
75050;SDS011;63628;47.656;11.310;2023-09-08T01:19:55;5.25;;;4.13;;
75050;SDS011;63628;47.656;11.310;2023-09-08T01:22:40;4.25;;;3.85;;
75050;SDS011;63628;47.656;11.310;2023-09-08T01:25:23;4.28;;;3.55;;
75050;SDS011;63628;47.656;11.310;2023-09-08T01:27:52;4.10;;;3.70;;
75050;SDS011;63628;47.656;11.310;2023-09-08T01:30:20;4.05;;;3.53;;
75050;SDS011;63628;47.656;11.310;2023-09-08T01:32:49;4.45;;;4.05;;
75050;SDS011;63628;47.656;11.310;2023-09-08T01:35:17;24.65;;;4.32;;
75050;SDS011;63628;47.656;11.310;2023-09-08T01:37:44;3.80;;;3.50;;
75050;SDS011;63628;47.656;11.310;2023-09-08T01:40:12;4.55;;;3.88;;
75050;SDS011;63628;47.656;11.310;2023-09-08T01:42:41;4.07;;;3.67;;
75050;SDS011;63628;47.656;11.310;2023-09-08T01:45:08;4.40;;;4.00;;
75050;SDS011;63628;47.656;11.310;2023-09-08T01:47:35;4.07;;;3.53;;
75050;SDS011;63628;47.656;11.310;2023-09-08T01:50:02;4.18;;;3.67;;
75050;SDS011;63628;47.656;11.310;2023-09-08T01:52:29;4.03;;;3.63;;
75050;SDS011;63628;47.656;11.310;2023-09-08T01:54:55;4.28;;;3.88;;
75050;SDS011;63628;47.656;11.310;2023-09-08T01:57:22;4.97;;;3.30;;
75050;SDS011;63628;47.656;11.310;2023-09-08T01:59:50;3.60;;;3.30;;
75050;SDS011;63628;47.656;11.310;2023-09-08T02:02:17;3.75;;;3.38;;
75050;SDS011;63628;47.656;11.310;2023-09-08T02:04:44;3.80;;;3.50;;
75050;SDS011;63628;47.656;11.310;2023-09-08T02:07:11;3.60;;;3.30;;
75050;SDS011;63628;47.656;11.310;2023-09-08T02:09:37;3.63;;;3.33;;
75050;SDS011;63628;47.656;11.310;2023-09-08T02:12:04;4.43;;;3.30;;
75050;SDS011;63628;47.656;11.310;2023-09-08T02:14:32;4.90;;;3.45;;
75050;SDS011;63628;47.656;11.310;2023-09-08T02:17:00;3.65;;;3.35;;
75050;SDS011;63628;47.656;11.310;2023-09-08T02:19:26;4.10;;;3.70;;
75050;SDS011;63628;47.656;11.310;2023-09-08T02:21:53;5.28;;;3.17;;
75050;SDS011;63628;47.656;11.310;2023-09-08T02:24:20;4.00;;;3.58;;
75050;SDS011;63628;47.656;11.310;2023-09-08T02:26:47;3.60;;;3.30;;
75050;SDS011;63628;47.656;11.310;2023-09-08T02:29:13;2.85;;;1.98;;
75050;SDS011;63628;47.656;11.310;2023-09-08T02:31:40;3.63;;;3.33;;
75050;SDS011;63628;47.656;11.310;2023-09-08T02:34:08;3.33;;;3.03;;
75050;SDS011;63628;47.656;11.310;2023-09-08T02:36:35;4.00;;;3.67;;
75050;SDS011;63628;47.656;11.310;2023-09-08T02:39:02;4.32;;;3.65;;
75050;SDS011;63628;47.656;11.310;2023-09-08T02:41:29;3.38;;;3.08;;
75050;SDS011;63628;47.656;11.310;2023-09-08T02:43:56;3.33;;;3.03;;
75050;SDS011;63628;47.656;11.310;2023-09-08T02:46:23;3.53;;;3.10;;
75050;SDS011;63628;47.656;11.310;2023-09-08T02:48:49;3.33;;;3.03;;
75050;SDS011;63628;47.656;11.310;2023-09-08T02:51:18;3.95;;;3.38;;
75050;SDS011;63628;47.656;11.310;2023-09-08T02:53:45;3.40;;;3.10;;
75050;SDS011;63628;47.656;11.310;2023-09-08T02:56:11;3.20;;;2.90;;
75050;SDS011;63628;47.656;11.310;2023-09-08T02:58:38;3.10;;;2.63;;
75050;SDS011;63628;47.656;11.310;2023-09-08T03:01:11;3.22;;;2.92;;
75050;SDS011;63628;47.656;11.310;2023-09-08T03:03:40;3.50;;;3.20;;
75050;SDS011;63628;47.656;11.310;2023-09-08T03:06:08;3.10;;;2.80;;
75050;SDS011;63628;47.656;11.310;2023-09-08T03:08:36;3.13;;;2.92;;
75050;SDS011;63628;47.656;11.310;2023-09-08T03:11:03;3.17;;;2.88;;
75050;SDS011;63628;47.656;11.310;2023-09-08T03:13:34;4.25;;;2.97;;
75050;SDS011;63628;47.656;11.310;2023-09-08T03:16:04;3.08;;;2.78;;
75050;SDS011;63628;47.656;11.310;2023-09-08T03:18:31;3.22;;;2.92;;
75050;SDS011;63628;47.656;11.310;2023-09-08T03:20:59;3.17;;;2.88;;
75050;SDS011;63628;47.656;11.310;2023-09-08T03:23:27;3.85;;;2.72;;
75050;SDS011;63628;47.656;11.310;2023-09-08T03:25:55;3.38;;;3.08;;
75050;SDS011;63628;47.656;11.310;2023-09-08T03:28:22;2.92;;;2.67;;
75050;SDS011;63628;47.656;11.310;2023-09-08T03:30:49;3.40;;;3.10;;
75050;SDS011;63628;47.656;11.310;2023-09-08T03:33:16;3.25;;;2.95;;
75050;SDS011;63628;47.656;11.310;2023-09-08T03:35:43;3.33;;;3.03;;
75050;SDS011;63628;47.656;11.310;2023-09-08T03:38:10;2.90;;;2.70;;
75050;SDS011;63628;47.656;11.310;2023-09-08T03:40:37;3.35;;;3.05;;
75050;SDS011;63628;47.656;11.310;2023-09-08T03:43:05;3.85;;;2.97;;
75050;SDS011;63628;47.656;11.310;2023-09-08T03:45:32;3.20;;;2.90;;
75050;SDS011;63628;47.656;11.310;2023-09-08T03:47:58;3.35;;;2.85;;
75050;SDS011;63628;47.656;11.310;2023-09-08T03:50:25;3.13;;;2.85;;
75050;SDS011;63628;47.656;11.310;2023-09-08T03:52:52;3.20;;;2.90;;
75050;SDS011;63628;47.656;11.310;2023-09-08T03:55:19;3.58;;;2.90;;
75050;SDS011;63628;47.656;11.310;2023-09-08T03:57:46;3.25;;;2.95;;
75050;SDS011;63628;47.656;11.310;2023-09-08T04:00:15;3.20;;;2.85;;
75050;SDS011;63628;47.656;11.310;2023-09-08T04:02:48;2.80;;;2.53;;
75050;SDS011;63628;47.656;11.310;2023-09-08T04:05:15;3.42;;;3.13;;
75050;SDS011;63628;47.656;11.310;2023-09-08T04:07:42;3.35;;;3.05;;
75050;SDS011;63628;47.656;11.310;2023-09-08T04:10:09;4.68;;;2.80;;
75050;SDS011;63628;47.656;11.310;2023-09-08T04:12:36;3.38;;;3.08;;
75050;SDS011;63628;47.656;11.310;2023-09-08T04:15:03;3.53;;;3.22;;
75050;SDS011;63628;47.656;11.310;2023-09-08T04:17:31;3.60;;;3.20;;
75050;SDS011;63628;47.656;11.310;2023-09-08T04:19:58;3.38;;;3.08;;
75050;SDS011;63628;47.656;11.310;2023-09-08T04:22:25;4.38;;;3.97;;
75050;SDS011;63628;47.656;11.310;2023-09-08T04:24:51;4.45;;;3.05;;
75050;SDS011;63628;47.656;11.310;2023-09-08T04:27:20;3.47;;;3.17;;
75050;SDS011;63628;47.656;11.310;2023-09-08T04:29:47;3.45;;;3.15;;
75050;SDS011;63628;47.656;11.310;2023-09-08T04:32:13;3.35;;;2.97;;
75050;SDS011;63628;47.656;11.310;2023-09-08T04:34:41;3.42;;;3.13;;
75050;SDS011;63628;47.656;11.310;2023-09-08T04:37:09;3.30;;;3.00;;
75050;SDS011;63628;47.656;11.310;2023-09-08T04:39:36;3.33;;;3.03;;
75050;SDS011;63628;47.656;11.310;2023-09-08T04:42:06;3.60;;;3.30;;
75050;SDS011;63628;47.656;11.310;2023-09-08T04:44:33;4.25;;;3.85;;
75050;SDS011;63628;47.656;11.310;2023-09-08T04:46:59;3.67;;;3.38;;
75050;SDS011;63628;47.656;11.310;2023-09-08T04:49:27;3.90;;;3.60;;
75050;SDS011;63628;47.656;11.310;2023-09-08T04:51:56;2.95;;;2.65;;
75050;SDS011;63628;47.656;11.310;2023-09-08T04:54:23;3.60;;;3.30;;
75050;SDS011;63628;47.656;11.310;2023-09-08T04:56:53;3.35;;;3.05;;
75050;SDS011;63628;47.656;11.310;2023-09-08T04:59:29;3.30;;;3.00;;
75050;SDS011;63628;47.656;11.310;2023-09-08T05:01:56;3.38;;;3.08;;
75050;SDS011;63628;47.656;11.310;2023-09-08T05:04:22;2.83;;;2.63;;
75050;SDS011;63628;47.656;11.310;2023-09-08T05:06:49;3.58;;;3.28;;
75050;SDS011;63628;47.656;11.310;2023-09-08T05:09:17;2.97;;;2.70;;
75050;SDS011;63628;47.656;11.310;2023-09-08T05:11:44;3.55;;;3.25;;
75050;SDS011;63628;47.656;11.310;2023-09-08T05:14:10;3.63;;;3.33;;
75050;SDS011;63628;47.656;11.310;2023-09-08T05:16:37;3.28;;;2.97;;
75050;SDS011;63628;47.656;11.310;2023-09-08T05:19:12;3.55;;;3.25;;
75050;SDS011;63628;47.656;11.310;2023-09-08T05:21:39;3.45;;;3.15;;
75050;SDS011;63628;47.656;11.310;2023-09-08T05:24:06;4.28;;;3.90;;
75050;SDS011;63628;47.656;11.310;2023-09-08T05:26:36;4.88;;;4.47;;
75050;SDS011;63628;47.656;11.310;2023-09-08T05:29:03;3.55;;;3.05;;
75050;SDS011;63628;47.656;11.310;2023-09-08T05:31:30;3.65;;;3.35;;
75050;SDS011;63628;47.656;11.310;2023-09-08T05:33:57;3.60;;;3.25;;
75050;SDS011;63628;47.656;11.310;2023-09-08T05:36:24;3.33;;;3.03;;
75050;SDS011;63628;47.656;11.310;2023-09-08T05:38:50;2.90;;;2.70;;
75050;SDS011;63628;47.656;11.310;2023-09-08T05:41:17;4.88;;;4.47;;
75050;SDS011;63628;47.656;11.310;2023-09-08T05:43:45;3.25;;;2.95;;
75050;SDS011;63628;47.656;11.310;2023-09-08T05:46:12;3.33;;;3.03;;
75050;SDS011;63628;47.656;11.310;2023-09-08T05:48:39;5.00;;;3.80;;
75050;SDS011;63628;47.656;11.310;2023-09-08T05:51:06;3.45;;;3.15;;
75050;SDS011;63628;47.656;11.310;2023-09-08T05:53:33;4.05;;;3.75;;
75050;SDS011;63628;47.656;11.310;2023-09-08T05:56:02;3.60;;;3.30;;
75050;SDS011;63628;47.656;11.310;2023-09-08T05:58:28;3.33;;;3.00;;
75050;SDS011;63628;47.656;11.310;2023-09-08T06:00:57;2.90;;;2.70;;
75050;SDS011;63628;47.656;11.310;2023-09-08T06:03:24;3.42;;;3.13;;
75050;SDS011;63628;47.656;11.310;2023-09-08T06:05:51;3.28;;;2.97;;
75050;SDS011;63628;47.656;11.310;2023-09-08T06:08:17;3.35;;;3.05;;
75050;SDS011;63628;47.656;11.310;2023-09-08T06:10:44;2.88;;;2.58;;
75050;SDS011;63628;47.656;11.310;2023-09-08T06:13:11;3.75;;;3.38;;
75050;SDS011;63628;47.656;11.310;2023-09-08T06:15:38;3.00;;;2.70;;
75050;SDS011;63628;47.656;11.310;2023-09-08T06:18:06;2.78;;;2.58;;
75050;SDS011;63628;47.656;11.310;2023-09-08T06:20:33;4.13;;;2.92;;
75050;SDS011;63628;47.656;11.310;2023-09-08T06:22:59;3.50;;;3.20;;
75050;SDS011;63628;47.656;11.310;2023-09-08T06:25:26;3.30;;;3.00;;
75050;SDS011;63628;47.656;11.310;2023-09-08T06:27:54;3.20;;;2.90;;
75050;SDS011;63628;47.656;11.310;2023-09-08T06:30:21;6.07;;;4.07;;
75050;SDS011;63628;47.656;11.310;2023-09-08T06:32:48;3.50;;;3.20;;
75050;SDS011;63628;47.656;11.310;2023-09-08T06:35:16;3.40;;;3.10;;
75050;SDS011;63628;47.656;11.310;2023-09-08T06:37:43;3.10;;;2.80;;
75050;SDS011;63628;47.656;11.310;2023-09-08T06:40:10;4.20;;;3.80;;
75050;SDS011;63628;47.656;11.310;2023-09-08T06:42:36;3.30;;;3.00;;
75050;SDS011;63628;47.656;11.310;2023-09-08T06:45:03;3.03;;;2.80;;
75050;SDS011;63628;47.656;11.310;2023-09-08T06:47:31;3.28;;;2.97;;
75050;SDS011;63628;47.656;11.310;2023-09-08T06:49:57;4.50;;;3.97;;
75050;SDS011;63628;47.656;11.310;2023-09-08T06:52:26;5.15;;;4.55;;
75050;SDS011;63628;47.656;11.310;2023-09-08T06:54:52;5.07;;;4.60;;
75050;SDS011;63628;47.656;11.310;2023-09-08T06:57:20;5.85;;;5.25;;
75050;SDS011;63628;47.656;11.310;2023-09-08T06:59:47;6.72;;;5.30;;
75050;SDS011;63628;47.656;11.310;2023-09-08T07:02:13;6.82;;;5.40;;
75050;SDS011;63628;47.656;11.310;2023-09-08T07:04:40;7.75;;;5.00;;
75050;SDS011;63628;47.656;11.310;2023-09-08T07:07:07;6.75;;;6.05;;
75050;SDS011;63628;47.656;11.310;2023-09-08T07:09:35;7.43;;;6.65;;
75050;SDS011;63628;47.656;11.310;2023-09-08T07:12:03;6.57;;;5.05;;
75050;SDS011;63628;47.656;11.310;2023-09-08T07:14:31;7.28;;;5.53;;
75050;SDS011;63628;47.656;11.310;2023-09-08T07:16:58;4.32;;;3.92;;
75050;SDS011;63628;47.656;11.310;2023-09-08T07:19:25;6.65;;;6.00;;
75050;SDS011;63628;47.656;11.310;2023-09-08T07:21:52;10.80;;;6.68;;
75050;SDS011;63628;47.656;11.310;2023-09-08T07:24:18;7.65;;;6.18;;
75050;SDS011;63628;47.656;11.310;2023-09-08T07:26:46;7.60;;;6.55;;
75050;SDS011;63628;47.656;11.310;2023-09-08T07:29:13;8.68;;;6.18;;
75050;SDS011;63628;47.656;11.310;2023-09-08T07:31:40;9.88;;;6.93;;
75050;SDS011;63628;47.656;11.310;2023-09-08T07:34:07;10.02;;;8.20;;
75050;SDS011;63628;47.656;11.310;2023-09-08T07:36:33;12.38;;;7.25;;
75050;SDS011;63628;47.656;11.310;2023-09-08T07:39:01;9.77;;;6.55;;
75050;SDS011;63628;47.656;11.310;2023-09-08T07:41:28;6.57;;;5.88;;
75050;SDS011;63628;47.656;11.310;2023-09-08T07:43:56;7.38;;;5.57;;
75050;SDS011;63628;47.656;11.310;2023-09-08T07:46:23;5.75;;;4.82;;
75050;SDS011;63628;47.656;11.310;2023-09-08T07:48:50;5.35;;;4.85;;
75050;SDS011;63628;47.656;11.310;2023-09-08T07:51:16;6.65;;;5.55;;
75050;SDS011;63628;47.656;11.310;2023-09-08T07:53:43;3.88;;;3.58;;
75050;SDS011;63628;47.656;11.310;2023-09-08T07:56:10;6.60;;;5.55;;
75050;SDS011;63628;47.656;11.310;2023-09-08T07:58:36;6.85;;;6.25;;
75050;SDS011;63628;47.656;11.310;2023-09-08T08:01:07;6.57;;;5.82;;
75050;SDS011;63628;47.656;11.310;2023-09-08T08:03:34;6.27;;;5.67;;
75050;SDS011;63628;47.656;11.310;2023-09-08T08:06:02;8.77;;;6.25;;
75050;SDS011;63628;47.656;11.310;2023-09-08T08:08:28;7.22;;;5.57;;
75050;SDS011;63628;47.656;11.310;2023-09-08T08:10:56;6.57;;;5.93;;
75050;SDS011;63628;47.656;11.310;2023-09-08T08:13:23;5.57;;;5.07;;
75050;SDS011;63628;47.656;11.310;2023-09-08T08:15:50;6.50;;;5.90;;
75050;SDS011;63628;47.656;11.310;2023-09-08T08:18:18;6.85;;;5.20;;
75050;SDS011;63628;47.656;11.310;2023-09-08T08:20:45;5.50;;;5.00;;
75050;SDS011;63628;47.656;11.310;2023-09-08T08:23:12;6.85;;;5.65;;
75050;SDS011;63628;47.656;11.310;2023-09-08T08:25:38;6.80;;;5.53;;
75050;SDS011;63628;47.656;11.310;2023-09-08T08:28:05;5.80;;;5.22;;
75050;SDS011;63628;47.656;11.310;2023-09-08T08:30:32;6.35;;;5.70;;
75050;SDS011;63628;47.656;11.310;2023-09-08T08:32:59;6.90;;;6.20;;
75050;SDS011;63628;47.656;11.310;2023-09-08T08:35:27;5.75;;;5.22;;
75050;SDS011;63628;47.656;11.310;2023-09-08T08:37:54;5.68;;;5.13;;
75050;SDS011;63628;47.656;11.310;2023-09-08T08:40:20;6.30;;;5.30;;
75050;SDS011;63628;47.656;11.310;2023-09-08T08:42:47;7.38;;;6.35;;
75050;SDS011;63628;47.656;11.310;2023-09-08T08:45:14;5.82;;;5.30;;
75050;SDS011;63628;47.656;11.310;2023-09-08T08:47:45;6.35;;;5.15;;
75050;SDS011;63628;47.656;11.310;2023-09-08T08:50:14;6.80;;;6.10;;
75050;SDS011;63628;47.656;11.310;2023-09-08T08:52:44;5.97;;;5.07;;
75050;SDS011;63628;47.656;11.310;2023-09-08T08:55:11;5.93;;;5.43;;
75050;SDS011;63628;47.656;11.310;2023-09-08T08:57:41;6.10;;;5.43;;
75050;SDS011;63628;47.656;11.310;2023-09-08T09:00:08;6.13;;;5.40;;
75050;SDS011;63628;47.656;11.310;2023-09-08T09:02:38;8.50;;;5.68;;
75050;SDS011;63628;47.656;11.310;2023-09-08T09:05:07;6.70;;;5.50;;
75050;SDS011;63628;47.656;11.310;2023-09-08T09:07:37;8.60;;;6.35;;
75050;SDS011;63628;47.656;11.310;2023-09-08T09:10:05;6.20;;;5.60;;
75050;SDS011;63628;47.656;11.310;2023-09-08T09:12:33;6.57;;;5.78;;
75050;SDS011;63628;47.656;11.310;2023-09-08T09:15:02;5.90;;;5.40;;
75050;SDS011;63628;47.656;11.310;2023-09-08T09:17:32;7.18;;;5.85;;
75050;SDS011;63628;47.656;11.310;2023-09-08T09:20:11;6.78;;;5.70;;
75050;SDS011;63628;47.656;11.310;2023-09-08T09:22:40;8.45;;;5.20;;
75050;SDS011;63628;47.656;11.310;2023-09-08T09:25:08;5.97;;;5.07;;
75050;SDS011;63628;47.656;11.310;2023-09-08T09:27:36;7.97;;;5.47;;
75050;SDS011;63628;47.656;11.310;2023-09-08T09:30:05;6.38;;;5.13;;
75050;SDS011;63628;47.656;11.310;2023-09-08T09:32:33;7.03;;;5.78;;
75050;SDS011;63628;47.656;11.310;2023-09-08T09:35:00;4.05;;;3.70;;
75050;SDS011;63628;47.656;11.310;2023-09-08T09:37:27;6.32;;;5.72;;
75050;SDS011;63628;47.656;11.310;2023-09-08T09:39:55;6.45;;;5.80;;
75050;SDS011;63628;47.656;11.310;2023-09-08T09:42:23;7.72;;;6.38;;
75050;SDS011;63628;47.656;11.310;2023-09-08T09:44:51;7.07;;;6.38;;
75050;SDS011;63628;47.656;11.310;2023-09-08T09:47:18;6.85;;;6.15;;
75050;SDS011;63628;47.656;11.310;2023-09-08T09:49:45;8.90;;;6.38;;
75050;SDS011;63628;47.656;11.310;2023-09-08T09:52:14;4.63;;;4.22;;
75050;SDS011;63628;47.656;11.310;2023-09-08T09:54:46;7.63;;;6.20;;
75050;SDS011;63628;47.656;11.310;2023-09-08T09:57:17;7.65;;;6.80;;
75050;SDS011;63628;47.656;11.310;2023-09-08T09:59:48;7.18;;;6.57;;
75050;SDS011;63628;47.656;11.310;2023-09-08T10:02:17;6.13;;;5.40;;
75050;SDS011;63628;47.656;11.310;2023-09-08T10:04:48;10.70;;;6.95;;
75050;SDS011;63628;47.656;11.310;2023-09-08T10:07:16;6.85;;;6.15;;
75050;SDS011;63628;47.656;11.310;2023-09-08T10:09:44;8.80;;;6.70;;
75050;SDS011;63628;47.656;11.310;2023-09-08T10:12:12;8.45;;;6.70;;
75050;SDS011;63628;47.656;11.310;2023-09-08T10:14:44;10.18;;;6.72;;
75050;SDS011;63628;47.656;11.310;2023-09-08T10:17:18;7.45;;;6.70;;
75050;SDS011;63628;47.656;11.310;2023-09-08T10:19:51;8.05;;;7.15;;
75050;SDS011;63628;47.656;11.310;2023-09-08T10:22:23;7.90;;;6.63;;
75050;SDS011;63628;47.656;11.310;2023-09-08T10:24:56;7.63;;;6.93;;
75050;SDS011;63628;47.656;11.310;2023-09-08T10:27:27;6.85;;;6.07;;
75050;SDS011;63628;47.656;11.310;2023-09-08T10:29:54;5.40;;;4.13;;
75050;SDS011;63628;47.656;11.310;2023-09-08T10:32:23;7.63;;;6.82;;
75050;SDS011;63628;47.656;11.310;2023-09-08T10:34:50;8.27;;;7.28;;
75050;SDS011;63628;47.656;11.310;2023-09-08T10:37:19;10.60;;;6.95;;
75050;SDS011;63628;47.656;11.310;2023-09-08T10:39:46;7.65;;;6.90;;
75050;SDS011;63628;47.656;11.310;2023-09-08T10:42:23;7.97;;;7.18;;
75050;SDS011;63628;47.656;11.310;2023-09-08T10:44:59;9.18;;;7.30;;
75050;SDS011;63628;47.656;11.310;2023-09-08T10:47:32;8.23;;;7.22;;
75050;SDS011;63628;47.656;11.310;2023-09-08T10:50:06;8.73;;;7.35;;
75050;SDS011;63628;47.656;11.310;2023-09-08T10:52:34;9.15;;;6.45;;
75050;SDS011;63628;47.656;11.310;2023-09-08T10:55:01;7.80;;;6.68;;
75050;SDS011;63628;47.656;11.310;2023-09-08T10:57:30;8.07;;;6.40;;
75050;SDS011;63628;47.656;11.310;2023-09-08T11:00:00;7.18;;;6.32;;
75050;SDS011;63628;47.656;11.310;2023-09-08T11:02:33;8.65;;;5.95;;
75050;SDS011;63628;47.656;11.310;2023-09-08T11:05:12;8.25;;;6.68;;
75050;SDS011;63628;47.656;11.310;2023-09-08T11:07:40;7.00;;;6.32;;
75050;SDS011;63628;47.656;11.310;2023-09-08T11:10:08;7.68;;;6.97;;
75050;SDS011;63628;47.656;11.310;2023-09-08T11:12:36;12.20;;;6.63;;
75050;SDS011;63628;47.656;11.310;2023-09-08T11:15:03;9.35;;;7.38;;
75050;SDS011;63628;47.656;11.310;2023-09-08T11:17:35;10.30;;;7.03;;
75050;SDS011;63628;47.656;11.310;2023-09-08T11:20:06;7.03;;;6.32;;
75050;SDS011;63628;47.656;11.310;2023-09-08T11:22:35;7.88;;;7.00;;
75050;SDS011;63628;47.656;11.310;2023-09-08T11:25:03;8.57;;;7.17;;
75050;SDS011;63628;47.656;11.310;2023-09-08T11:27:33;7.57;;;6.88;;
75050;SDS011;63628;47.656;11.310;2023-09-08T11:30:00;8.60;;;6.38;;
75050;SDS011;63628;47.656;11.310;2023-09-08T11:32:31;8.73;;;7.25;;
75050;SDS011;63628;47.656;11.310;2023-09-08T11:35:02;8.52;;;7.45;;
75050;SDS011;63628;47.656;11.310;2023-09-08T11:37:30;8.07;;;6.35;;
75050;SDS011;63628;47.656;11.310;2023-09-08T11:39:57;10.73;;;7.60;;
75050;SDS011;63628;47.656;11.310;2023-09-08T11:42:24;9.88;;;6.93;;
75050;SDS011;63628;47.656;11.310;2023-09-08T11:44:52;6.95;;;6.35;;
75050;SDS011;63628;47.656;11.310;2023-09-08T11:47:19;6.78;;;6.07;;
75050;SDS011;63628;47.656;11.310;2023-09-08T11:49:46;8.07;;;7.30;;
75050;SDS011;63628;47.656;11.310;2023-09-08T11:52:14;8.60;;;6.95;;
75050;SDS011;63628;47.656;11.310;2023-09-08T11:54:41;8.80;;;6.72;;
75050;SDS011;63628;47.656;11.310;2023-09-08T11:57:27;7.63;;;6.93;;
75050;SDS011;63628;47.656;11.310;2023-09-08T11:59:55;7.82;;;7.13;;
75050;SDS011;63628;47.656;11.310;2023-09-08T12:02:22;8.93;;;7.13;;
75050;SDS011;63628;47.656;11.310;2023-09-08T12:04:48;8.00;;;7.13;;
75050;SDS011;63628;47.656;11.310;2023-09-08T12:07:16;8.05;;;7.28;;
75050;SDS011;63628;47.656;11.310;2023-09-08T12:09:46;8.48;;;6.63;;
75050;SDS011;63628;47.656;11.310;2023-09-08T12:12:14;7.25;;;6.65;;
75050;SDS011;63628;47.656;11.310;2023-09-08T12:14:41;9.23;;;6.40;;
75050;SDS011;63628;47.656;11.310;2023-09-08T12:17:13;9.82;;;6.50;;
75050;SDS011;63628;47.656;11.310;2023-09-08T12:19:43;7.60;;;6.72;;
75050;SDS011;63628;47.656;11.310;2023-09-08T12:22:10;6.78;;;6.18;;
75050;SDS011;63628;47.656;11.310;2023-09-08T12:24:49;9.23;;;6.53;;
75050;SDS011;63628;47.656;11.310;2023-09-08T12:27:28;8.30;;;6.97;;
75050;SDS011;63628;47.656;11.310;2023-09-08T12:29:55;7.57;;;6.50;;
75050;SDS011;63628;47.656;11.310;2023-09-08T12:32:24;7.10;;;6.40;;
75050;SDS011;63628;47.656;11.310;2023-09-08T12:34:51;7.85;;;7.00;;
75050;SDS011;63628;47.656;11.310;2023-09-08T12:37:21;7.85;;;6.68;;
75050;SDS011;63628;47.656;11.310;2023-09-08T12:39:50;7.47;;;6.65;;
75050;SDS011;63628;47.656;11.310;2023-09-08T12:42:17;7.60;;;6.90;;
75050;SDS011;63628;47.656;11.310;2023-09-08T12:44:44;7.95;;;6.47;;
75050;SDS011;63628;47.656;11.310;2023-09-08T12:47:11;6.63;;;6.03;;
75050;SDS011;63628;47.656;11.310;2023-09-08T12:49:40;8.35;;;6.85;;
75050;SDS011;63628;47.656;11.310;2023-09-08T12:52:07;7.72;;;6.97;;
75050;SDS011;63628;47.656;11.310;2023-09-08T12:54:35;7.83;;;6.47;;
75050;SDS011;63628;47.656;11.310;2023-09-08T12:57:03;8.20;;;6.60;;
75050;SDS011;63628;47.656;11.310;2023-09-08T12:59:32;6.75;;;6.13;;
75050;SDS011;63628;47.656;11.310;2023-09-08T13:01:59;8.80;;;6.78;;
75050;SDS011;63628;47.656;11.310;2023-09-08T13:04:25;6.45;;;5.85;;
75050;SDS011;63628;47.656;11.310;2023-09-08T13:06:52;7.32;;;6.32;;
75050;SDS011;63628;47.656;11.310;2023-09-08T13:09:19;7.50;;;6.82;;
75050;SDS011;63628;47.656;11.310;2023-09-08T13:11:46;6.82;;;6.13;;
75050;SDS011;63628;47.656;11.310;2023-09-08T13:14:14;8.63;;;6.43;;
75050;SDS011;63628;47.656;11.310;2023-09-08T13:16:41;7.53;;;6.82;;
75050;SDS011;63628;47.656;11.310;2023-09-08T13:19:08;10.15;;;6.45;;
75050;SDS011;63628;47.656;11.310;2023-09-08T13:21:34;8.38;;;6.28;;
75050;SDS011;63628;47.656;11.310;2023-09-08T13:24:03;6.50;;;5.80;;
75050;SDS011;63628;47.656;11.310;2023-09-08T13:26:33;7.85;;;7.05;;
75050;SDS011;63628;47.656;11.310;2023-09-08T13:28:59;7.95;;;6.88;;
75050;SDS011;63628;47.656;11.310;2023-09-08T13:31:27;9.25;;;6.78;;
75050;SDS011;63628;47.656;11.310;2023-09-08T13:33:54;7.47;;;6.78;;
75050;SDS011;63628;47.656;11.310;2023-09-08T13:36:21;7.43;;;6.57;;
75050;SDS011;63628;47.656;11.310;2023-09-08T13:38:47;8.02;;;6.35;;
75050;SDS011;63628;47.656;11.310;2023-09-08T13:41:14;10.82;;;6.97;;
75050;SDS011;63628;47.656;11.310;2023-09-08T13:43:41;7.30;;;6.68;;
75050;SDS011;63628;47.656;11.310;2023-09-08T13:46:11;12.02;;;6.70;;
75050;SDS011;63628;47.656;11.310;2023-09-08T13:48:39;8.30;;;7.05;;
75050;SDS011;63628;47.656;11.310;2023-09-08T13:51:08;11.52;;;8.07;;
75050;SDS011;63628;47.656;11.310;2023-09-08T13:53:36;8.00;;;6.90;;
75050;SDS011;63628;47.656;11.310;2023-09-08T13:56:12;8.35;;;7.30;;
75050;SDS011;63628;47.656;11.310;2023-09-08T13:58:40;7.78;;;7.07;;
75050;SDS011;63628;47.656;11.310;2023-09-08T14:01:16;10.73;;;7.15;;
75050;SDS011;63628;47.656;11.310;2023-09-08T14:03:47;8.55;;;7.70;;
75050;SDS011;63628;47.656;11.310;2023-09-08T14:06:20;8.73;;;7.18;;
75050;SDS011;63628;47.656;11.310;2023-09-08T14:08:55;7.03;;;6.43;;
75050;SDS011;63628;47.656;11.310;2023-09-08T14:11:25;8.80;;;7.65;;
75050;SDS011;63628;47.656;11.310;2023-09-08T14:13:57;8.10;;;7.30;;
75050;SDS011;63628;47.656;11.310;2023-09-08T14:16:24;7.38;;;6.57;;
75050;SDS011;63628;47.656;11.310;2023-09-08T14:18:52;7.55;;;6.72;;
75050;SDS011;63628;47.656;11.310;2023-09-08T14:21:19;7.00;;;6.40;;
75050;SDS011;63628;47.656;11.310;2023-09-08T14:23:45;8.70;;;7.30;;
75050;SDS011;63628;47.656;11.310;2023-09-08T14:26:12;8.23;;;7.20;;
75050;SDS011;63628;47.656;11.310;2023-09-08T14:28:39;8.38;;;7.43;;
75050;SDS011;63628;47.656;11.310;2023-09-08T14:31:06;7.05;;;6.45;;
75050;SDS011;63628;47.656;11.310;2023-09-08T14:33:32;7.45;;;6.75;;
75050;SDS011;63628;47.656;11.310;2023-09-08T14:36:01;8.20;;;7.40;;
75050;SDS011;63628;47.656;11.310;2023-09-08T14:38:29;7.35;;;6.63;;